Time;durP1;ratioP1;P1;durP2;ratioP2;P2;SDS_P1;SDS_P2;PMS_P1;PMS_P2;Temp;Humidity;BMP_temperature;BMP_pressure;BME280_temperature;BME280_humidity;BME280_pressure;Samples;Min_cycle;Max_cycle;Signal;HPM_P1;HPM_P2
2022/11/22 00:02:23;;;;;;;14.27;4.32;;;;;;;6.82;100.00;98937.47;4964635;28;20593;-68
2022/11/22 00:04:48;;;;;;;11.40;4.40;;;;;;;6.82;100.00;98937.47;4973532;28;20035;-68
2022/11/22 00:07:13;;;;;;;10.15;4.20;;;;;;;6.86;100.00;98935.09;4955204;28;20050;-68
2022/11/22 00:09:39;;;;;;;12.93;4.47;;;;;;;6.84;100.00;98926.47;4945042;28;20122;-68
2022/11/22 00:12:04;;;;;;;10.50;4.07;;;;;;;6.86;100.00;98919.78;4952939;29;20039;-68
2022/11/22 00:14:29;;;;;;;11.60;4.32;;;;;;;6.84;100.00;98924.59;4957699;29;20498;-68
2022/11/22 00:16:55;;;;;;;10.50;4.13;;;;;;;6.85;100.00;98931.59;4957254;29;20057;-68
2022/11/22 00:19:20;;;;;;;7.50;4.10;;;;;;;6.85;100.00;98933.47;4961420;29;20092;-68
2022/11/22 00:21:45;;;;;;;11.13;4.05;;;;;;;6.87;100.00;98937.56;4974733;29;20038;-68
2022/11/22 00:24:11;;;;;;;9.77;5.10;;;;;;;6.86;100.00;98927.84;4971646;29;20036;-68
2022/11/22 00:26:36;;;;;;;12.35;4.40;;;;;;;6.87;100.00;98923.28;4957067;28;20476;-68
2022/11/22 00:29:02;;;;;;;11.73;4.53;;;;;;;6.84;100.00;98929.97;4941914;29;20032;-68
2022/11/22 00:31:27;;;;;;;9.80;3.80;;;;;;;6.83;100.00;98933.72;4938301;29;20382;-68
2022/11/22 00:33:52;;;;;;;11.32;3.80;;;;;;;6.82;100.00;98933.97;4938326;29;20027;-68
2022/11/22 00:36:17;;;;;;;8.23;3.65;;;;;;;6.79;100.00;98937.16;4946940;29;20082;-68
2022/11/22 00:38:43;;;;;;;12.57;3.90;;;;;;;6.78;100.00;98941.72;4954906;29;20387;-68
2022/11/22 00:41:09;;;;;;;12.05;4.38;;;;;;;6.77;100.00;98936.59;4957436;28;20034;-68
2022/11/22 00:43:34;;;;;;;8.68;3.97;;;;;;;6.73;100.00;98934.41;4956922;29;20085;-68
2022/11/22 00:46:00;;;;;;;12.77;3.88;;;;;;;6.72;100.00;98934.66;4955927;28;20474;-69
2022/11/22 00:48:25;;;;;;;9.02;3.60;;;;;;;6.68;100.00;98931.63;4957256;29;20038;-68
2022/11/22 00:50:50;;;;;;;7.68;3.60;;;;;;;6.64;100.00;98935.06;4956953;28;20043;-68
2022/11/22 00:53:16;;;;;;;11.70;3.70;;;;;;;6.64;100.00;98929.69;4956504;28;20051;-68
2022/11/22 00:55:41;;;;;;;8.93;3.95;;;;;;;6.57;100.00;98929.84;4934554;29;20065;-68
2022/11/22 00:58:06;;;;;;;8.63;3.40;;;;;;;6.57;100.00;98936.03;4937938;29;20439;-68
2022/11/22 01:00:32;;;;;;;11.35;3.78;;;;;;;6.53;100.00;98934.09;4935758;29;20075;-68
2022/11/22 01:02:57;;;;;;;8.82;3.67;;;;;;;6.51;100.00;98922.78;4974046;28;20046;-68
2022/11/22 01:05:23;;;;;;;11.70;3.47;;;;;;;6.50;100.00;98927.31;4958650;28;20444;-68
2022/11/22 01:07:48;;;;;;;6.88;3.15;;;;;;;6.47;100.00;98922.44;4936467;29;20024;-68
2022/11/22 01:10:16;;;;;;;10.60;3.40;;;;;;;6.44;100.00;98932.88;4948452;29;20079;-68
2022/11/22 01:12:42;;;;;;;7.25;3.65;;;;;;;6.40;100.00;98929.84;4956830;28;20043;-68
2022/11/22 01:15:07;;;;;;;15.65;3.53;;;;;;;6.38;100.00;98929.28;4955935;29;20055;-68
2022/11/22 01:17:33;;;;;;;13.20;3.80;;;;;;;6.35;100.00;98937.84;4956591;28;20027;-68
2022/11/22 01:19:58;;;;;;;10.65;3.38;;;;;;;6.34;100.00;98938.88;4956364;28;20045;-68
2022/11/22 01:22:23;;;;;;;8.52;2.90;;;;;;;6.32;100.00;98944.50;4956435;29;20032;-68
2022/11/22 01:24:48;;;;;;;12.85;3.38;;;;;;;6.30;100.00;98948.50;4953586;29;20085;-68
2022/11/22 01:27:14;;;;;;;10.23;3.30;;;;;;;6.29;100.00;98944.19;4956575;29;20035;-68
2022/11/22 01:29:39;;;;;;;13.23;3.70;;;;;;;6.28;100.00;98947.91;4956224;29;20111;-68
2022/11/22 01:32:05;;;;;;;9.73;3.63;;;;;;;6.26;100.00;98937.41;4956161;28;20394;-68
2022/11/22 01:34:31;;;;;;;13.95;3.65;;;;;;;6.24;100.00;98934.19;4955454;28;20027;-68
2022/11/22 01:36:56;;;;;;;16.90;3.47;;;;;;;6.21;100.00;98937.34;4956558;29;20035;-68
2022/11/22 01:39:22;;;;;;;13.73;3.92;;;;;;;6.20;100.00;98941.91;4955885;29;20033;-68
2022/11/22 01:41:47;;;;;;;12.25;3.78;;;;;;;6.19;100.00;98956.41;4947794;29;20510;-68
2022/11/22 01:44:19;;;;;;;12.65;3.60;;;;;;;6.16;100.00;98951.50;4936192;29;20059;-68
2022/11/22 01:46:52;;;;;;;14.82;2.90;;;;;;;6.16;100.00;98961.41;4936595;29;20039;-68
2022/11/22 01:49:47;;;;;;;16.77;3.08;;;;;;;6.18;100.00;98962.81;4936926;29;20027;-68
2022/11/22 01:52:22;;;;;;;10.38;3.35;;;;;;;6.14;100.00;98963.53;4931278;29;20051;-68
2022/11/22 01:55:00;;;;;;;16.02;3.38;;;;;;;6.13;100.00;98970.78;4955311;29;20035;-68
2022/11/22 01:57:31;;;;;;;14.63;3.53;;;;;;;6.13;100.00;98960.06;4954825;28;20097;-68
2022/11/22 02:00:02;;;;;;;10.90;2.70;;;;;;;6.12;100.00;98971.03;4955868;29;20378;-68
2022/11/22 02:02:27;;;;;;;14.73;3.08;;;;;;;6.10;100.00;98970.44;4964281;28;20470;-68
2022/11/22 02:04:55;;;;;;;11.65;3.10;;;;;;;6.10;100.00;98967.75;4962277;28;20067;-68
2022/11/22 02:07:30;;;;;;;11.73;3.25;;;;;;;6.09;100.00;98966.97;4954614;29;20046;-68
2022/11/22 02:09:56;;;;;;;14.20;2.80;;;;;;;6.08;100.00;98975.25;4955521;28;20031;-68
2022/11/22 02:12:26;;;;;;;20.02;3.70;;;;;;;6.08;100.00;98978.75;4955708;28;20031;-68
2022/11/22 02:14:53;;;;;;;13.13;3.08;;;;;;;6.06;100.00;98972.81;4954121;29;20035;-68
2022/11/22 02:17:20;;;;;;;15.60;3.45;;;;;;;6.07;100.00;98979.81;4955574;28;20126;-68
2022/11/22 02:19:48;;;;;;;16.92;3.72;;;;;;;6.03;100.00;98979.47;4938524;29;20059;-68
2022/11/22 02:22:39;;;;;;;12.70;2.75;;;;;;;6.05;100.00;98979.22;4944481;29;20054;-68
2022/11/22 02:25:28;;;;;;;15.63;3.03;;;;;;;6.02;100.00;98979.72;4935880;29;20492;-68
2022/11/22 02:27:54;;;;;;;15.98;2.83;;;;;;;6.01;100.00;98986.16;4933795;29;20130;-68
2022/11/22 02:30:19;;;;;;;15.05;2.97;;;;;;;5.98;100.00;98983.97;4936300;29;20094;-68
2022/11/22 02:32:45;;;;;;;19.40;3.05;;;;;;;5.96;100.00;98984.16;4935450;29;20501;-68
2022/11/22 02:35:20;;;;;;;14.45;2.78;;;;;;;5.96;100.00;98994.91;4945602;29;20119;-68
2022/11/22 02:37:50;;;;;;;13.70;2.92;;;;;;;5.92;100.00;98988.38;4953555;29;20053;-68
2022/11/22 02:40:20;;;;;;;13.38;2.88;;;;;;;5.92;100.00;98983.00;4954415;28;20151;-68
2022/11/22 02:42:59;;;;;;;16.92;3.97;;;;;;;5.90;100.00;98981.59;4953281;29;20023;-68
2022/11/22 02:45:24;;;;;;;21.92;3.38;;;;;;;5.88;100.00;98986.41;4954115;29;20492;-68
2022/11/22 02:47:50;;;;;;;13.98;3.20;;;;;;;5.84;100.00;98980.69;4951594;29;20554;-68
2022/11/22 02:50:15;;;;;;;18.15;3.10;;;;;;;5.84;100.00;98988.75;4955037;29;20114;-68
2022/11/22 02:52:41;;;;;;;17.33;3.33;;;;;;;5.83;100.00;98990.63;4954538;28;20487;-68
2022/11/22 02:55:07;;;;;;;18.67;3.28;;;;;;;5.82;100.00;98998.91;4953050;28;20170;-68
2022/11/22 02:57:32;;;;;;;18.58;3.67;;;;;;;5.81;100.00;99000.78;4954829;28;20023;-68
2022/11/22 02:59:57;;;;;;;21.35;3.75;;;;;;;5.79;100.00;98999.41;4954725;28;20038;-68
2022/11/22 03:02:23;;;;;;;17.77;3.35;;;;;;;5.77;100.00;98996.94;4965731;28;20058;-68
2022/11/22 03:04:48;;;;;;;16.15;3.42;;;;;;;5.77;100.00;98994.28;4966725;28;20034;-68
2022/11/22 03:07:13;;;;;;;15.27;2.72;;;;;;;5.76;100.00;98994.50;4954807;28;20422;-68
2022/11/22 03:09:38;;;;;;;15.13;2.60;;;;;;;5.74;100.00;98992.06;4953596;28;20050;-68
2022/11/22 03:12:04;;;;;;;14.55;2.80;;;;;;;5.73;100.00;98993.09;4954693;29;20039;-68
2022/11/22 03:14:32;;;;;;;16.83;3.10;;;;;;;5.73;100.00;99009.22;4950348;29;20027;-68
2022/11/22 03:16:57;;;;;;;18.17;3.00;;;;;;;5.71;100.00;99008.66;4934895;29;20035;-68
2022/11/22 03:19:23;;;;;;;18.83;3.45;;;;;;;5.68;100.00;99017.97;4935484;29;20031;-68
2022/11/22 03:21:48;;;;;;;16.17;3.20;;;;;;;5.66;100.00;99016.56;4935304;29;20048;-68
2022/11/22 03:24:13;;;;;;;17.23;3.17;;;;;;;5.65;100.00;99023.00;4944541;29;20427;-68
2022/11/22 03:26:39;;;;;;;16.05;2.80;;;;;;;5.62;100.00;99026.97;4954380;29;20035;-68
2022/11/22 03:29:04;;;;;;;14.98;2.85;;;;;;;5.60;100.00;99013.00;4954612;29;20047;-68
2022/11/22 03:31:29;;;;;;;13.02;2.83;;;;;;;5.58;100.00;99025.81;4954720;28;20086;-68
2022/11/22 03:33:55;;;;;;;17.77;3.60;;;;;;;5.55;100.00;99025.47;4954520;29;20545;-68
2022/11/22 03:36:20;;;;;;;18.08;3.17;;;;;;;5.53;100.00;99016.88;4934724;29;20087;-68
2022/11/22 03:38:46;;;;;;;15.15;3.10;;;;;;;5.50;100.00;99024.31;4935251;29;20038;-68
2022/11/22 03:41:11;;;;;;;12.77;2.63;;;;;;;5.47;100.00;99019.44;4935479;29;20115;-68
2022/11/22 03:43:37;;;;;;;14.48;2.80;;;;;;;5.47;100.00;99015.94;4935294;29;20059;-68
2022/11/22 03:46:02;;;;;;;19.50;3.38;;;;;;;5.45;100.00;99026.91;4953977;29;20438;-68
2022/11/22 03:48:28;;;;;;;13.52;2.97;;;;;;;5.42;100.00;99021.19;4955412;28;20114;-68
2022/11/22 03:51:01;;;;;;;20.15;3.13;;;;;;;5.41;100.00;99020.38;4958079;29;20090;-68
2022/11/22 03:53:26;;;;;;;15.32;2.92;;;;;;;5.39;100.00;99022.50;4957844;29;20048;-68
2022/11/22 03:55:51;;;;;;;18.35;3.20;;;;;;;5.39;100.00;99017.13;4956796;29;20545;-68
2022/11/22 03:58:16;;;;;;;15.90;2.97;;;;;;;5.36;100.00;99028.31;4957354;29;20038;-68
2022/11/22 04:00:42;;;;;;;14.80;3.03;;;;;;;5.35;100.00;99028.56;4955829;28;20026;-69
2022/11/22 04:03:07;;;;;;;17.35;3.20;;;;;;;5.35;100.00;99031.25;4958927;28;20179;-68
2022/11/22 04:05:32;;;;;;;17.77;3.45;;;;;;;5.29;100.00;99028.44;4958192;29;20034;-68
2022/11/22 04:07:57;;;;;;;19.20;3.03;;;;;;;5.28;100.00;99023.31;4957085;29;20067;-68
2022/11/22 04:10:24;;;;;;;20.70;3.20;;;;;;;5.25;100.00;99021.09;4958004;29;20035;-68
2022/11/22 04:12:49;;;;;;;19.15;3.63;;;;;;;5.23;100.00;99031.25;4957797;29;20035;-68
2022/11/22 04:15:15;;;;;;;15.82;3.05;;;;;;;5.20;100.00;99037.09;4957960;28;20023;-68
2022/11/22 04:17:43;;;;;;;15.38;2.90;;;;;;;5.18;100.00;99047.22;4955256;28;20067;-68
2022/11/22 04:23:17;;;;;;;17.38;3.13;;;;;;;5.18;100.00;99057.94;4958251;29;20038;-68
2022/11/22 04:25:48;;;;;;;18.95;3.55;;;;;;;5.15;100.00;99070.78;4963373;29;20035;-68
2022/11/22 04:28:15;;;;;;;14.88;2.90;;;;;;;5.12;100.00;99068.56;4969045;29;20031;-68
2022/11/22 04:33:26;;;;;;;18.48;3.65;;;;;;;5.08;100.00;99047.81;4957948;29;20133;-68
2022/11/22 04:35:52;;;;;;;16.25;2.75;;;;;;;5.03;100.00;99055.72;4957894;28;20058;-68
2022/11/22 04:38:17;;;;;;;14.27;3.00;;;;;;;5.01;100.00;99053.28;4956987;28;20032;-68
2022/11/22 04:40:43;;;;;;;12.48;3.28;;;;;;;5.00;100.00;99051.66;4957238;28;20038;-68
2022/11/22 04:46:00;;;;;;;13.00;3.05;;;;;;;4.96;100.00;99050.47;4956347;28;20109;-68
2022/11/22 04:48:25;;;;;;;10.15;2.47;;;;;;;4.93;100.00;99056.31;4956268;28;20035;-68
2022/11/22 04:53:36;;;;;;;17.42;3.00;;;;;;;4.91;100.00;99063.78;4956838;29;20134;-68
2022/11/22 04:56:01;;;;;;;11.98;2.40;;;;;;;4.89;100.00;99063.19;4956431;28;20046;-68
2022/11/22 04:58:26;;;;;;;12.25;2.55;;;;;;;4.87;100.00;99058.03;4941556;29;20394;-68
2022/11/22 05:00:52;;;;;;;15.35;3.00;;;;;;;4.85;100.00;99068.19;4952838;28;20148;-68
2022/11/22 05:03:17;;;;;;;11.65;2.50;;;;;;;4.85;100.00;99064.72;4976496;28;20031;-68
2022/11/22 05:05:44;;;;;;;12.95;2.92;;;;;;;4.83;100.00;99064.09;4976126;28;20062;-68
2022/11/22 05:08:10;;;;;;;12.98;3.05;;;;;;;4.84;100.00;99063.06;4962128;28;20039;-68
2022/11/22 05:13:33;;;;;;;14.60;2.63;;;;;;;4.84;100.00;99068.44;4967422;28;20053;-70
2022/11/22 05:15:59;;;;;;;8.50;2.17;;;;;;;4.79;100.00;99072.59;4955140;29;20043;-67
2022/11/22 05:18:25;;;;;;;12.00;2.88;;;;;;;4.77;100.00;99074.72;4955597;28;20180;-67
2022/11/22 05:20:51;;;;;;;11.80;3.00;;;;;;;4.76;100.00;99070.38;4956574;29;20419;-67
2022/11/22 05:26:01;;;;;;;14.98;3.08;;;;;;;4.75;100.00;99071.44;4937460;29;20055;-68
2022/11/22 05:28:28;;;;;;;14.27;2.60;;;;;;;4.73;100.00;99068.16;4950706;29;20039;-68
2022/11/22 05:30:55;;;;;;;11.07;2.45;;;;;;;4.75;100.00;99065.25;4955254;29;20043;-68
2022/11/22 05:33:20;;;;;;;13.60;2.63;;;;;;;4.73;100.00;99060.13;4956561;28;20510;-68
2022/11/22 05:35:45;;;;;;;19.17;3.17;;;;;;;4.72;100.00;99061.16;4956312;29;20050;-68
2022/11/22 05:38:11;;;;;;;10.38;2.58;;;;;;;4.70;100.00;99063.28;4955621;29;20031;-68
2022/11/22 05:40:36;;;;;;;16.15;2.55;;;;;;;4.70;100.00;99062.47;4956363;29;20019;-68
2022/11/22 05:43:01;;;;;;;11.23;2.67;;;;;;;4.66;100.00;99056.72;4956177;29;20122;-68
2022/11/22 05:45:26;;;;;;;13.13;2.63;;;;;;;4.65;100.00;99060.47;4955705;28;20035;-68
2022/11/22 05:47:52;;;;;;;12.20;2.78;;;;;;;4.63;100.00;99067.91;4955213;28;20110;-68
2022/11/22 05:50:17;;;;;;;12.85;2.58;;;;;;;4.62;100.00;99068.97;4955956;29;20027;-68
2022/11/22 05:52:42;;;;;;;12.23;2.60;;;;;;;4.61;100.00;99059.31;4967723;28;20150;-68
2022/11/22 05:55:08;;;;;;;11.48;2.58;;;;;;;4.59;100.00;99064.09;4959370;28;20086;-68
2022/11/22 05:57:33;;;;;;;11.90;2.88;;;;;;;4.58;100.00;99057.88;4948866;28;20034;-68
2022/11/22 05:59:58;;;;;;;13.02;2.78;;;;;;;4.56;100.00;99051.13;4950931;29;20041;-68
2022/11/22 06:02:24;;;;;;;20.90;3.33;;;;;;;4.56;100.00;99054.63;4967120;28;20051;-68
2022/11/22 06:04:49;;;;;;;10.45;2.45;;;;;;;4.54;100.00;99051.34;4974724;28;20043;-68
2022/11/22 06:07:15;;;;;;;15.95;2.92;;;;;;;4.53;100.00;99057.78;4969108;28;20027;-68
2022/11/22 06:09:40;;;;;;;9.57;2.25;;;;;;;4.53;100.00;99062.28;4955157;29;20035;-68
2022/11/22 06:12:06;;;;;;;10.40;2.65;;;;;;;4.52;100.00;99061.50;4955501;28;20055;-68
2022/11/22 06:14:31;;;;;;;8.10;2.25;;;;;;;4.50;100.00;99058.22;4954578;28;20386;-68
2022/11/22 06:16:56;;;;;;;11.27;3.28;;;;;;;4.50;100.00;99068.09;4954060;28;20031;-68
2022/11/22 06:19:22;;;;;;;11.40;2.60;;;;;;;4.49;100.00;99061.13;4964168;28;20488;-68
2022/11/22 06:21:47;;;;;;;11.80;2.70;;;;;;;4.46;100.00;99064.28;4974709;28;20482;-68
2022/11/22 06:24:12;;;;;;;11.73;3.47;;;;;;;4.44;100.00;99059.16;4974840;28;20027;-68
2022/11/22 06:26:38;;;;;;;12.93;2.85;;;;;;;4.43;100.00;99073.56;4975123;28;20517;-68
2022/11/22 06:29:03;;;;;;;17.58;3.38;;;;;;;4.42;100.00;99080.81;4953454;28;20059;-68
2022/11/22 06:31:28;;;;;;;10.52;2.45;;;;;;;4.40;100.00;99074.84;4955403;28;20057;-68
2022/11/22 06:33:56;;;;;;;12.18;3.60;;;;;;;4.41;100.00;99079.16;4954913;29;20493;-68
2022/11/22 06:36:30;;;;;;;11.13;2.22;;;;;;;4.39;100.00;99073.22;4955230;28;20035;-68
2022/11/22 06:38:56;;;;;;;15.65;2.80;;;;;;;4.37;100.00;99080.66;4954036;28;20035;-68
2022/11/22 06:41:24;;;;;;;12.13;2.60;;;;;;;4.38;100.00;99086.84;4955249;28;20054;-68
2022/11/22 06:43:51;;;;;;;13.07;2.95;;;;;;;4.37;100.00;99096.72;4954284;28;20536;-68
2022/11/22 06:46:18;;;;;;;14.18;2.30;;;;;;;4.35;100.00;99085.44;4955123;28;20079;-70
2022/11/22 06:48:43;;;;;;;11.23;2.50;;;;;;;4.36;100.00;99092.44;4953903;28;20364;-80
2022/11/22 06:51:14;;;;;;;16.00;2.88;;;;;;;4.36;100.00;99088.91;4953536;29;20130;-70
2022/11/22 06:53:40;;;;;;;12.20;2.78;;;;;;;4.38;100.00;99087.66;4955080;28;20113;-71
2022/11/22 06:56:27;;;;;;;17.98;2.67;;;;;;;4.39;100.00;99083.94;4953257;29;20035;-70
2022/11/22 06:58:53;;;;;;;13.95;2.95;;;;;;;4.43;100.00;99103.84;4949838;29;20054;-70
2022/11/22 07:01:24;;;;;;;13.10;2.40;;;;;;;4.46;100.00;99099.91;4957115;28;20050;-70
2022/11/22 07:03:50;;;;;;;14.25;2.65;;;;;;;4.47;100.00;99101.53;4973866;28;20038;-71
2022/11/22 07:06:17;;;;;;;13.23;2.70;;;;;;;4.50;100.00;99105.59;4973857;28;20381;-70
2022/11/22 07:08:43;;;;;;;11.80;2.58;;;;;;;4.53;100.00;99110.50;4967861;28;20364;-70
2022/11/22 07:11:14;;;;;;;11.63;2.72;;;;;;;4.54;100.00;99118.31;4954181;28;20111;-70
2022/11/22 07:13:40;;;;;;;11.40;2.50;;;;;;;4.54;100.00;99118.31;4954008;28;20507;-70
2022/11/22 07:16:08;;;;;;;8.77;2.22;;;;;;;4.56;100.00;99118.94;4948864;29;20119;-70
2022/11/22 07:18:34;;;;;;;11.43;2.92;;;;;;;4.58;100.00;99118.69;4938278;29;20493;-70
2022/11/22 07:21:13;;;;;;;14.55;2.60;;;;;;;4.62;100.00;99114.53;4954500;28;20031;-70
2022/11/22 07:23:40;;;;;;;10.70;2.40;;;;;;;4.60;100.00;99113.91;4954746;29;20098;-70
2022/11/22 07:26:05;;;;;;;8.85;2.60;;;;;;;4.63;100.00;99104.63;4954134;28;20039;-70
2022/11/22 07:28:31;;;;;;;12.65;2.60;;;;;;;4.64;100.00;99108.94;4947722;29;20039;-70
2022/11/22 07:31:01;;;;;;;14.35;2.90;;;;;;;4.69;100.00;99117.09;4958039;29;20039;-70
2022/11/22 07:33:26;;;;;;;11.77;2.58;;;;;;;4.71;100.00;99115.81;4957994;28;20034;-69
2022/11/22 07:35:52;;;;;;;10.90;2.38;;;;;;;4.72;100.00;99114.75;4958393;28;20422;-70
2022/11/22 07:38:17;;;;;;;9.63;3.00;;;;;;;4.75;100.00;99114.31;4957876;29;20031;-70
2022/11/22 07:40:42;;;;;;;8.05;2.33;;;;;;;4.78;100.00;99123.75;4957206;28;20031;-70
2022/11/22 07:43:08;;;;;;;15.82;2.53;;;;;;;4.81;100.00;99125.16;4953383;29;20121;-70
2022/11/22 07:45:33;;;;;;;8.20;2.72;;;;;;;4.84;100.00;99111.31;4954028;28;20039;-69
2022/11/22 07:47:59;;;;;;;7.97;2.00;;;;;;;4.87;100.00;99116.19;4954158;29;20114;-70
2022/11/22 07:50:25;;;;;;;8.35;2.00;;;;;;;4.91;100.00;99117.38;4953980;29;20102;-70
2022/11/22 07:52:55;;;;;;;13.90;2.90;;;;;;;4.94;100.00;99111.56;4954505;29;20098;-70
2022/11/22 07:55:20;;;;;;;13.57;2.92;;;;;;;4.95;100.00;99122.06;4954442;29;20034;-70
2022/11/22 07:57:45;;;;;;;9.88;2.40;;;;;;;4.97;100.00;99122.63;4951869;29;20035;-70
2022/11/22 08:00:12;;;;;;;9.07;2.17;;;;;;;5.04;100.00;99127.91;4950593;29;20027;-72
